BFIBOEING FLD/KING COUNTY INTL
METARs for airports near BFI, sorted by distance:
N 0 nm 21' KBFI 280553Z 15006KT 10SM FU CLR 14/12 A2993
SE 4 nm 32' KRNT 280553Z 18005KT 9SM FU CLR 15/12 A2993
S 4 nm 432' KSEA 280553Z 20008KT 10SM FEW150 SCT220 13/11 A2994
W 18 nm 444' KPWT 280556Z 21003KT 10SM CLR 11/11 A2994
SW 19 nm 294' KTIW 280553Z 23006KT 10SM CLR 13/12 A2995
N 22 nm 606' KPAE 280553Z 00000KT 10SM FU CLR 15/09 A2993
S 24 nm 322' KTCM 280606Z 00000KT 10SM BKN012 13/13 A2994
S 25 nm 537' KPLU 280555Z 00000KT 10SM -DZ CLR 13/12 A2996
S 29 nm 301' KGRF 280556Z 22003KT 10SM BKN012 13/11 A2993
N 38 nm 141' KAWO 280556Z 00000KT 10SM CLR 14/11 A2992
SW 38 nm 272' KSHN 280607Z 24007G17KT 10SM OVC009 14/12 A2993
SW 41 nm 207' KOLM 280554Z 00000KT 10SM CLR 12/11 A2996
N 51 nm 47' KNUW 280553Z 22005KT 10SM SCT080 BKN250 13/11 A2995
N 56 nm 145' KBVS 280550Z 18005KT 10SM CLR 13/11 A2991
NW 57 nm 13' KNOW 280555Z 27010KT 10SM CLR 13/12 A2992
SW 58 nm 177' KCLS 280415Z 00000KT 10SM OVC018 14/13 A2995
NW 59 nm 291' KCLM 280553Z 28008KT 10SM CLR 14/12 A2993
NW 66 nm 112' KFHR 280553Z 00000KT 10SM CLR 13/10 A2990
SW 74 nm 17' KHQM 280553Z 13006KT 10SM OVC022 15/12 A2996
N 74 nm 34' KORS 280555Z 17012G19KT 10SM CLR 16/ A2987
N 76 nm 171' KBLI 280553Z 18007KT 10SM CLR 16/12 A2989
E 78 nm 1763' KELN 280553Z 28008KT 10SM CLR 19/08 A2988
NW 80 nm 64' CYYJ 280600Z 21004KT 20SM FEW220 14/10 A2987
E 85 nm 1248' KEAT 280555Z 33007KT 10SM CLR 22/06 A2985
S 88 nm 20' KKLS 280556Z 00000KT 10SM OVC015 15/12 A2998
SE 92 nm 1098' KYKM 280553Z 00000KT 10SM CLR 15/08 A2987
W 94 nm 194' KUIL 280553Z 13005KT 10SM OVC016 13/12 A2993
TAFs for airports near BFI, sorted by distance:
N 0 nm 21' KBFI KBFI 280531Z 2806/2906 18004KT P6SM BKN150
  FM280900 VRB03KT P6SM BKN070
  FM281400 17003KT P6SM BKN022
  FM281800 20005KT P6SM VCSH BKN040 OVC070
S 4 nm 432' KSEA KSEA 280531Z 2806/2912 20006KT P6SM BKN150
  FM280900 19004KT P6SM SCT025 BKN070
  FM281400 18004KT P6SM OVC020
  FM281800 21005KT P6SM VCSH BKN035 OVC060
  FM282200 23007KT P6SM VCSH BKN050 OVC080
  FM290800 VRB03KT P6SM BKN050
W 18 nm 444' KPWT TAF KPWT 280531Z 2806/2906 21004KT P6SM BKN150
  FM280800 19004KT P6SM SCT009 BKN060
  FM281100 20003KT P6SM OVC005
  FM281700 20007KT P6SM VCSH OVC015
  FM282200 21009KT P6SM VCSH BKN035 OVC060
N 22 nm 606' KPAE KPAE 280531Z 2806/2906 36004KT P6SM BKN150
  FM281000 17004KT P6SM SCT025 BKN070
  FM281400 17005KT P6SM BKN022 OVC040
  FM281800 19007KT P6SM VCSH BKN035 OVC060
  FM282200 23008KT P6SM VCSH BKN050 OVC080
S 24 nm 322' KTCM TAF KTCM 280500Z 2805/2911 25006KT 9999 SCT025 QNH2993INS
  BECMG 2806/2807 23006KT 9999 BKN015 OVC025 QNH2994INS
  BECMG 2814/2815 22006KT 9999 VCSH BKN015 OVC025 QNH2995INS
  BECMG 2816/2817 25008KT 9000 -SHRA BKN015 OVC025 QNH2996INS
  BECMG 2822/2823 24006KT 9999 VCSH BKN030 OVC050 QNH2997INS
  BECMG 2905/2906 VRB06KT 9999 NSW BKN020 OVC040 QNH3002INS TX19/2821Z TN11/2813Z
S 29 nm 301' KGRF TAF KGRF 272100Z 2721/2903 22010G15KT 9999 FEW290 QNH2984INS
  BECMG 2801/2802 24010G15KT 9999 FEW020 SCT220 QNH2986INS
  BECMG 2802/2803 25010KT 9999 FEW020 SCT220 QNH2989INS
  BECMG 2803/2804 24006KT 9999 BKN018 BKN200 QNH2990INS
  BECMG 2807/2808 20005KT 9999 FEW009 BKN015 BKN190 QNH2991INS
  BECMG 2814/2815 21004KT 9999 FEW020 BKN130 OVC180 QNH2992INS
  BECMG 2817/2818 22005KT 9999 BKN030 BKN100 OVC150 QNH2993INS
  BECMG 2819/2820 23010KT 9000 -SHRA BKN020 OVC050 QNH2993INS TX26/2723Z TN12/2814Z
SW 41 nm 207' KOLM KOLM 280531Z 2806/2906 VRB03KT P6SM BKN150
  FM281000 VRB03KT P6SM SCT015 OVC060
  FM281400 VRB03KT P6SM VCSH OVC007
  FM281700 21006KT 6SM -SHRA OVC015
  FM282200 24006KT P6SM VCSH BKN035 OVC060
N 51 nm 47' KNUW TAF KNUW 2723/2823 28008KT 9999 FEW040 SCT250 QNH2984INS
  FM280100 24008KT 9999 FEW015 SCT150 BKN250 QNH2985INS
  FM280700 VRB06KT 9999 VCSH SCT015 BKN040 BKN150 QNH2993INS
  TEMPO 2809/2815 15008KT 6000 RA BR BKN010 OVC030
  FM281800 14008KT 9999 VCSH BKN025 BKN050 BKN100 QNH2997INS T19/2723Z T09/2813Z FS30004
NW 59 nm 291' KCLM KCLM 280531Z 2806/2906 28008KT P6SM BKN150
  FM280900 26004KT P6SM SCT015 OVC150
  FM281300 VRB04KT 6SM -SHRA SCT008 OVC015
  FM282000 35006KT P6SM VCSH BKN025 OVC060
  FM282200 32006KT P6SM VCSH BKN050 OVC070
SW 74 nm 17' KHQM KHQM 280531Z 2806/2906 19008KT P6SM OVC015
  FM281100 12006KT 6SM -RA SCT007 OVC015
  FM281700 11010KT P6SM VCSH OVC012
  FM282200 14009KT 6SM BR VCSH BKN020 OVC035
N 76 nm 171' KBLI KBLI 280531Z 2806/2906 18007KT P6SM BKN200
  FM281400 17010KT P6SM SCT020 OVC050
  FM281900 17008KT P6SM VCSH BKN040 OVC060
E 85 nm 1248' KEAT TAF KEAT 280520Z 2806/2906 31007KT P6SM FEW120 SCT250
  FM281200 30009KT 6SM HZ SCT080 BKN250
  FM281800 28005KT P6SM SCT080 BKN200
  FM290300 31009KT P6SM SCT080 BKN100
SE 92 nm 1098' KYKM KYKM 280531Z 2806/2906 28008KT P6SM SCT250
  FM282000 25008KT P6SM SCT100 BKN250
  FM290100 28008KT P6SM VCSH BKN100 BKN250

Shortcut to this page: http://wxbay.com.

Data may contain errors.